createdAt,value
2023-03-03T00:01:04.120Z,21.73
2023-03-03T00:03:32.080Z,22.40
2023-03-03T00:06:00.020Z,22.17
2023-03-03T00:08:28.244Z,24.03
2023-03-03T00:10:57.301Z,22.57
2023-03-03T00:13:27.168Z,22.23
2023-03-03T00:16:06.918Z,21.67
2023-03-03T00:18:37.220Z,23.87
2023-03-03T00:21:20.599Z,23.60
2023-03-03T00:23:48.321Z,23.07
2023-03-03T00:26:23.204Z,23.20
2023-03-03T00:28:52.864Z,25.33
2023-03-03T00:31:26.299Z,23.77
2023-03-03T00:33:55.902Z,24.43
2023-03-03T00:36:31.855Z,23.97
2023-03-03T00:39:18.638Z,24.77
2023-03-03T00:41:47.881Z,25.83
2023-03-03T00:44:43.673Z,24.77
2023-03-03T00:47:30.728Z,24.23
2023-03-03T00:50:32.121Z,23.17
2023-03-03T00:53:08.027Z,25.40
2023-03-03T00:55:36.853Z,25.43
2023-03-03T00:58:06.113Z,26.27
2023-03-03T01:00:39.356Z,25.90
2023-03-03T01:03:12.002Z,26.37
2023-03-03T01:05:39.763Z,25.90
2023-03-03T01:08:07.813Z,26.30
2023-03-03T01:10:38.773Z,27.60
2023-03-03T01:13:09.523Z,26.37
2023-03-03T01:15:37.595Z,26.07
2023-03-03T01:18:05.484Z,27.03
2023-03-03T01:20:33.333Z,26.93
2023-03-03T01:23:01.160Z,26.63
2023-03-03T01:25:29.053Z,25.77
2023-03-03T01:27:57.393Z,26.57
2023-03-03T01:30:27.035Z,27.50
2023-03-03T01:32:54.843Z,26.50
2023-03-03T01:35:23.201Z,28.00
2023-03-03T01:37:51.103Z,26.77
2023-03-03T01:40:22.426Z,25.93
2023-03-03T01:42:55.569Z,25.93
2023-03-03T01:45:25.526Z,26.23
2023-03-03T01:47:59.550Z,26.37
2023-03-03T01:50:35.421Z,26.47
2023-03-03T01:53:06.160Z,27.73
2023-03-03T01:55:37.697Z,27.63
2023-03-03T01:58:10.074Z,27.57
2023-03-03T02:00:40.357Z,26.17
2023-03-03T02:03:10.847Z,27.17
2023-03-03T02:05:41.042Z,27.47
2023-03-03T02:08:13.401Z,27.03
2023-03-03T02:10:41.688Z,27.57
2023-03-03T02:13:09.559Z,27.90
2023-03-03T02:15:37.480Z,25.50
2023-03-03T02:18:08.043Z,27.33
2023-03-03T02:20:49.110Z,26.80
2023-03-03T02:23:23.825Z,26.20
2023-03-03T02:26:08.653Z,26.33
2023-03-03T02:28:38.491Z,27.67
2023-03-03T02:31:13.486Z,25.57
2023-03-03T02:33:43.199Z,25.73
2023-03-03T02:36:14.490Z,26.13
2023-03-03T02:38:49.429Z,25.47
2023-03-03T02:41:28.008Z,26.57
2023-03-03T02:44:01.301Z,26.07
2023-03-03T02:46:33.150Z,28.63
2023-03-03T02:49:01.871Z,26.80
2023-03-03T02:51:29.717Z,27.23
2023-03-03T02:53:57.728Z,24.17
2023-03-03T02:56:29.226Z,24.27
2023-03-03T02:58:57.257Z,24.63
2023-03-03T03:01:25.133Z,26.13
2023-03-03T03:03:54.977Z,25.43
2023-03-03T03:06:24.994Z,25.73
2023-03-03T03:08:52.827Z,24.67
2023-03-03T03:11:21.898Z,25.13
2023-03-03T03:13:51.919Z,24.77
2023-03-03T03:16:20.143Z,24.90
2023-03-03T03:18:47.959Z,24.67
2023-03-03T03:21:16.547Z,24.50
2023-03-03T03:23:44.565Z,24.23
2023-03-03T03:26:13.740Z,24.03
2023-03-03T03:28:41.858Z,24.20
2023-03-03T03:31:11.613Z,24.23
2023-03-03T03:33:39.420Z,24.07
2023-03-03T03:36:09.223Z,24.67
2023-03-03T03:38:37.675Z,24.63
2023-03-03T03:41:08.445Z,23.60
2023-03-03T03:43:36.996Z,23.33
2023-03-03T03:46:05.123Z,22.00
2023-03-03T03:48:35.212Z,22.73
2023-03-03T03:51:05.237Z,22.07
2023-03-03T03:53:34.538Z,22.60
2023-03-03T03:56:02.342Z,21.23
2023-03-03T03:58:31.132Z,22.10
2023-03-03T04:01:05.982Z,21.77
2023-03-03T04:03:37.228Z,21.30
2023-03-03T04:06:09.199Z,21.43
2023-03-03T04:08:37.017Z,22.47
2023-03-03T04:11:05.227Z,21.57
2023-03-03T04:13:35.091Z,20.90
2023-03-03T04:16:04.508Z,21.30
2023-03-03T04:18:32.390Z,20.63
2023-03-03T04:21:02.193Z,20.57
2023-03-03T04:23:29.997Z,20.43
2023-03-03T04:25:57.819Z,19.70
2023-03-03T04:28:27.256Z,20.37
2023-03-03T04:30:55.111Z,21.53
2023-03-03T04:33:24.088Z,21.40
2023-03-03T04:35:52.388Z,19.17
2023-03-03T04:38:21.952Z,21.90
2023-03-03T04:40:50.723Z,19.80
2023-03-03T04:43:19.320Z,21.27
2023-03-03T04:45:48.263Z,20.53
2023-03-03T04:48:17.909Z,22.10
2023-03-03T04:50:45.996Z,22.37
2023-03-03T04:53:14.190Z,21.33
2023-03-03T04:55:44.917Z,20.00
2023-03-03T04:58:13.278Z,19.57
2023-03-03T05:00:41.321Z,21.07
2023-03-03T05:03:13.775Z,21.87
2023-03-03T05:05:43.066Z,20.57
2023-03-03T05:08:10.809Z,20.23
2023-03-03T05:10:38.708Z,20.17
2023-03-03T05:13:08.281Z,20.63
2023-03-03T05:15:36.276Z,19.40
2023-03-03T05:18:04.299Z,18.67
2023-03-03T05:20:32.058Z,19.70
2023-03-03T05:23:01.581Z,19.17
2023-03-03T05:25:29.411Z,18.40
2023-03-03T05:27:57.242Z,19.47
2023-03-03T05:30:26.350Z,19.33
2023-03-03T05:32:54.184Z,19.60
2023-03-03T05:35:22.031Z,19.67
2023-03-03T05:37:49.808Z,19.97
2023-03-03T05:40:17.701Z,18.67
2023-03-03T05:42:45.474Z,18.83
2023-03-03T05:45:13.913Z,19.60
2023-03-03T05:47:43.071Z,20.67
2023-03-03T05:50:12.220Z,19.60
2023-03-03T05:52:40.035Z,19.23
2023-03-03T05:55:08.679Z,19.63
2023-03-03T05:57:36.806Z,19.77
2023-03-03T06:00:05.636Z,19.83
2023-03-03T06:02:40.034Z,19.40
2023-03-03T06:05:11.623Z,19.10
2023-03-03T06:07:39.744Z,18.73
2023-03-03T06:10:08.729Z,18.77
2023-03-03T06:12:39.277Z,18.33
2023-03-03T06:15:08.733Z,18.43
2023-03-03T06:17:36.690Z,20.17
2023-03-03T06:20:05.192Z,18.50
2023-03-03T06:22:34.405Z,18.43
2023-03-03T06:25:02.163Z,19.73
2023-03-03T06:27:30.176Z,18.50
2023-03-03T06:29:58.498Z,20.63
2023-03-03T06:32:26.429Z,18.77
2023-03-03T06:34:54.215Z,20.00
2023-03-03T06:37:22.038Z,20.23
2023-03-03T06:39:52.571Z,18.10
2023-03-03T06:42:21.105Z,18.93
2023-03-03T06:44:48.964Z,18.90
2023-03-03T06:47:16.719Z,17.40
2023-03-03T06:49:44.618Z,17.60
2023-03-03T06:52:14.653Z,17.77
2023-03-03T06:54:42.758Z,17.63
2023-03-03T06:57:18.964Z,16.83
2023-03-03T06:59:50.194Z,18.93
2023-03-03T07:02:19.271Z,17.60
2023-03-03T07:04:48.028Z,17.77
2023-03-03T07:07:20.528Z,17.17
2023-03-03T07:09:50.480Z,17.10
2023-03-03T07:12:22.194Z,16.33
2023-03-03T07:14:55.947Z,18.17
2023-03-03T07:17:26.610Z,16.90
2023-03-03T07:19:54.898Z,16.03
2023-03-03T07:22:29.937Z,16.03
2023-03-03T07:25:01.913Z,15.50
2023-03-03T07:27:32.521Z,16.90
2023-03-03T07:30:18.677Z,16.97
2023-03-03T07:32:47.511Z,14.97
2023-03-03T07:35:34.605Z,16.07
2023-03-03T07:38:02.336Z,15.87
2023-03-03T07:40:39.033Z,15.70
2023-03-03T07:43:31.223Z,16.00
2023-03-03T07:46:16.040Z,14.87
2023-03-03T07:48:45.190Z,15.63
2023-03-03T07:51:23.236Z,15.47
2023-03-03T07:53:52.246Z,16.27
2023-03-03T07:56:29.533Z,15.67
2023-03-03T07:58:59.567Z,15.53
2023-03-03T08:01:42.829Z,16.00
2023-03-03T08:04:25.004Z,15.47
2023-03-03T08:06:54.325Z,15.50
2023-03-03T08:09:46.238Z,17.20
2023-03-03T08:12:32.308Z,16.00
2023-03-03T08:15:35.578Z,16.17
2023-03-03T08:18:05.280Z,14.60
2023-03-03T08:20:47.959Z,15.33
2023-03-03T08:23:17.856Z,15.90
2023-03-03T08:25:46.225Z,15.93
2023-03-03T08:28:14.234Z,15.93
2023-03-03T08:30:44.500Z,15.63
2023-03-03T08:33:12.930Z,17.00
2023-03-03T08:35:41.197Z,16.80
2023-03-03T08:38:09.902Z,15.63
2023-03-03T08:40:38.015Z,15.57
2023-03-03T08:43:06.310Z,14.73
2023-03-03T08:45:34.524Z,15.43
2023-03-03T08:48:06.133Z,14.63
2023-03-03T08:50:34.174Z,16.37
2023-03-03T08:53:01.983Z,16.67
2023-03-03T08:55:30.437Z,15.50
2023-03-03T08:57:58.246Z,14.67
2023-03-03T09:00:26.534Z,16.80
2023-03-03T09:02:55.159Z,15.07
2023-03-03T09:05:25.703Z,14.97
2023-03-03T09:07:54.011Z,17.17
2023-03-03T09:10:27.370Z,16.83
2023-03-03T09:12:58.214Z,17.93
2023-03-03T09:15:28.691Z,19.90
2023-03-03T09:17:59.817Z,19.43
2023-03-03T09:20:37.266Z,19.77
2023-03-03T09:23:30.493Z,18.67
2023-03-03T09:25:59.164Z,19.40
2023-03-03T09:28:28.649Z,18.13
2023-03-03T09:30:59.536Z,19.53
2023-03-03T09:33:30.299Z,19.13
2023-03-03T09:36:13.571Z,19.27
2023-03-03T09:38:45.668Z,17.77
2023-03-03T09:41:42.341Z,18.40
2023-03-03T09:44:26.245Z,19.60
2023-03-03T09:47:07.503Z,19.00
2023-03-03T09:49:36.511Z,20.67
2023-03-03T09:52:17.355Z,20.87
2023-03-03T09:54:55.983Z,22.00
2023-03-03T09:57:30.545Z,20.63
2023-03-03T10:00:18.818Z,21.83
2023-03-03T10:02:58.740Z,21.90
2023-03-03T10:05:34.529Z,20.93
2023-03-03T10:08:20.121Z,21.80
2023-03-03T10:10:57.871Z,20.93
2023-03-03T10:13:37.840Z,20.37
2023-03-03T10:16:35.419Z,20.87
2023-03-03T10:19:04.722Z,19.63
2023-03-03T10:21:38.595Z,20.20
2023-03-03T10:24:23.397Z,19.67
2023-03-03T10:27:13.892Z,20.10
2023-03-03T10:29:51.812Z,18.93
2023-03-03T10:32:32.891Z,21.53
2023-03-03T10:35:18.751Z,21.17
2023-03-03T10:37:56.289Z,19.80
2023-03-03T10:40:33.992Z,20.93
2023-03-03T10:43:31.656Z,21.17
2023-03-03T10:46:23.131Z,19.07
2023-03-03T10:49:17.824Z,19.37
2023-03-03T10:52:01.101Z,20.03
2023-03-03T10:54:48.704Z,20.63
2023-03-03T10:57:25.718Z,20.67
2023-03-03T11:00:09.350Z,20.80
2023-03-03T11:02:42.529Z,20.53
2023-03-03T11:05:26.776Z,21.20
2023-03-03T11:07:58.988Z,21.23
2023-03-03T11:10:35.945Z,21.47
2023-03-03T11:13:13.679Z,21.40
2023-03-03T11:16:10.574Z,20.00
2023-03-03T11:18:56.676Z,18.87
2023-03-03T11:21:34.145Z,18.87
2023-03-03T11:24:16.027Z,18.33
2023-03-03T11:27:00.237Z,19.10
2023-03-03T11:29:44.924Z,18.87
2023-03-03T11:32:23.483Z,20.00
2023-03-03T11:34:59.032Z,19.13
2023-03-03T11:37:37.177Z,19.23
2023-03-03T11:40:14.345Z,18.50
2023-03-03T11:42:54.485Z,18.57
2023-03-03T11:45:28.821Z,19.17
2023-03-03T11:48:02.261Z,18.07
2023-03-03T11:50:37.015Z,17.37
2023-03-03T11:53:19.370Z,18.53
2023-03-03T11:55:53.951Z,17.77
2023-03-03T11:58:26.227Z,18.83
2023-03-03T12:01:00.723Z,18.00
2023-03-03T12:03:35.687Z,17.30
2023-03-03T12:06:19.735Z,17.80
2023-03-03T12:09:04.940Z,17.80
2023-03-03T12:11:43.955Z,18.17
2023-03-03T12:14:26.957Z,18.07
2023-03-03T12:16:59.517Z,18.13
2023-03-03T12:19:34.620Z,18.57
2023-03-03T12:22:29.732Z,18.63
2023-03-03T12:25:19.084Z,18.43
2023-03-03T12:27:53.374Z,19.23
2023-03-03T12:30:36.526Z,19.60
2023-03-03T12:33:18.359Z,19.30
2023-03-03T12:35:56.208Z,17.63
2023-03-03T12:38:35.057Z,18.77
2023-03-03T12:41:09.783Z,18.43
2023-03-03T12:43:53.756Z,18.83
2023-03-03T12:46:29.588Z,18.07
2023-03-03T12:48:58.809Z,19.33
2023-03-03T12:51:37.399Z,20.23
2023-03-03T12:54:23.048Z,20.47
2023-03-03T12:56:56.034Z,19.63
2023-03-03T12:59:32.834Z,21.33
2023-03-03T13:02:20.949Z,20.73
2023-03-03T13:04:57.745Z,20.47
2023-03-03T13:07:32.917Z,21.83
2023-03-03T13:10:09.958Z,22.60
2023-03-03T13:12:44.044Z,21.50
2023-03-03T13:15:26.833Z,21.43
2023-03-03T13:18:16.744Z,22.23
2023-03-03T13:20:52.068Z,22.00
2023-03-03T13:23:34.117Z,21.10
2023-03-03T13:26:09.154Z,21.53
2023-03-03T13:28:43.772Z,23.00
2023-03-03T13:31:17.098Z,23.90
2023-03-03T13:33:51.396Z,21.90
2023-03-03T13:36:20.905Z,21.03
2023-03-03T13:38:50.912Z,22.77
2023-03-03T13:41:24.651Z,22.13
2023-03-03T13:43:58.305Z,22.13
2023-03-03T13:46:38.509Z,22.90
2023-03-03T13:49:23.020Z,22.07
2023-03-03T13:51:59.855Z,22.30
2023-03-03T13:54:51.884Z,22.90
2023-03-03T13:57:29.674Z,23.17
2023-03-03T14:00:11.528Z,22.60
2023-03-03T14:02:57.035Z,22.97
2023-03-03T14:05:31.318Z,21.83
2023-03-03T14:08:04.929Z,23.23
2023-03-03T14:10:35.460Z,21.80
2023-03-03T14:13:06.426Z,22.67
2023-03-03T14:15:37.652Z,23.03
2023-03-03T14:18:26.257Z,23.60
2023-03-03T14:20:55.407Z,22.83
2023-03-03T14:23:33.379Z,22.97
2023-03-03T14:26:08.894Z,22.10
2023-03-03T14:28:41.277Z,22.73
2023-03-03T14:31:27.712Z,23.93
2023-03-03T14:34:01.618Z,23.30
2023-03-03T14:36:33.436Z,23.03
2023-03-03T14:39:29.398Z,22.97
2023-03-03T14:41:59.304Z,23.43
2023-03-03T14:44:30.553Z,24.70
2023-03-03T14:47:17.584Z,26.10
2023-03-03T14:49:47.523Z,23.53
2023-03-03T14:52:25.112Z,24.60
2023-03-03T14:54:56.246Z,25.17
2023-03-03T14:57:46.187Z,25.73
2023-03-03T15:00:31.181Z,24.83
2023-03-03T15:03:06.659Z,24.73
2023-03-03T15:05:35.151Z,24.00
2023-03-03T15:08:10.792Z,23.30
2023-03-03T15:10:41.895Z,22.97
2023-03-03T15:13:29.197Z,23.80
2023-03-03T15:16:08.609Z,22.77
2023-03-03T15:18:56.625Z,23.40
2023-03-03T15:21:29.205Z,23.13
2023-03-03T15:24:05.103Z,23.90
2023-03-03T15:26:45.278Z,23.47
2023-03-03T15:29:21.289Z,24.03
2023-03-03T15:31:57.953Z,25.03
2023-03-03T15:34:38.798Z,22.83
2023-03-03T15:37:21.862Z,22.77
2023-03-03T15:40:01.774Z,23.30
2023-03-03T15:42:35.731Z,23.13
2023-03-03T15:45:16.187Z,22.67
2023-03-03T15:48:01.866Z,22.10
2023-03-03T15:50:40.466Z,21.13
2023-03-03T15:53:21.483Z,20.13
2023-03-03T15:56:05.392Z,20.73
2023-03-03T15:59:08.618Z,20.20
2023-03-03T16:01:41.399Z,20.80
2023-03-03T16:04:14.457Z,22.90
2023-03-03T16:06:49.696Z,20.20
2023-03-03T16:09:43.882Z,21.73
2023-03-03T16:12:21.524Z,22.47
2023-03-03T16:15:05.369Z,19.23
2023-03-03T16:17:41.005Z,21.00
2023-03-03T16:20:20.700Z,20.60
2023-03-03T16:23:03.110Z,19.60
2023-03-03T16:25:43.102Z,20.07
2023-03-03T16:28:18.818Z,19.67
2023-03-03T16:30:53.458Z,20.57
2023-03-03T16:33:27.092Z,20.27
2023-03-03T16:36:04.979Z,20.23
2023-03-03T16:38:38.530Z,19.30
2023-03-03T16:41:11.823Z,19.67
2023-03-03T16:43:47.494Z,20.93
2023-03-03T16:46:31.838Z,21.07
2023-03-03T16:49:09.690Z,20.97
2023-03-03T16:51:46.168Z,21.30
2023-03-03T16:54:23.458Z,21.57
2023-03-03T16:57:01.603Z,21.80
2023-03-03T16:59:40.932Z,20.70
2023-03-03T17:02:33.319Z,21.03
2023-03-03T17:05:07.286Z,20.63
2023-03-03T17:07:44.446Z,21.40
2023-03-03T17:10:25.619Z,21.33
2023-03-03T17:13:40.886Z,20.30
2023-03-03T17:16:15.532Z,21.90
2023-03-03T17:18:57.056Z,21.40
2023-03-03T17:21:37.881Z,20.83
2023-03-03T17:24:16.428Z,21.53
2023-03-03T17:26:56.654Z,20.33
2023-03-03T17:29:46.394Z,20.60
2023-03-03T17:32:26.729Z,20.03
2023-03-03T17:35:23.211Z,20.17
2023-03-03T17:37:58.271Z,20.10
2023-03-03T17:40:39.242Z,19.00
2023-03-03T17:43:16.031Z,20.03
2023-03-03T17:45:47.178Z,20.10
2023-03-03T17:48:41.447Z,20.53
2023-03-03T17:51:37.609Z,19.63
2023-03-03T17:54:20.276Z,18.77
2023-03-03T17:56:58.533Z,19.30
2023-03-03T17:59:44.842Z,19.20
2023-03-03T18:02:38.405Z,18.47
2023-03-03T18:05:28.421Z,19.37
2023-03-03T18:08:40.688Z,19.43
2023-03-03T18:11:28.266Z,19.73
2023-03-03T18:14:30.113Z,18.77
2023-03-03T18:17:18.091Z,20.20
2023-03-03T18:20:12.698Z,19.53
2023-03-03T18:22:44.567Z,19.60
2023-03-03T18:25:15.792Z,19.07
2023-03-03T18:27:44.663Z,18.37
2023-03-03T18:30:28.291Z,19.50
2023-03-03T18:33:11.144Z,19.27
2023-03-03T18:35:40.957Z,18.87
2023-03-03T18:38:41.615Z,19.33
2023-03-03T18:41:13.042Z,18.77
2023-03-03T18:43:49.206Z,20.07
2023-03-03T18:46:55.352Z,20.07
2023-03-03T18:49:53.672Z,19.77
2023-03-03T18:52:25.038Z,20.87
2023-03-03T18:55:27.064Z,20.10
2023-03-03T18:58:28.623Z,18.60
2023-03-03T19:01:00.649Z,19.90
2023-03-03T19:03:33.684Z,19.73
2023-03-03T19:06:02.708Z,20.70
2023-03-03T19:08:45.826Z,20.23
2023-03-03T19:11:40.613Z,20.13
2023-03-03T19:14:32.431Z,21.27
2023-03-03T19:17:36.395Z,21.67
2023-03-03T19:20:12.314Z,21.20
2023-03-03T19:22:47.061Z,27.37
2023-03-03T19:25:23.006Z,27.40
2023-03-03T19:28:03.732Z,28.20
2023-03-03T19:30:43.778Z,30.07
2023-03-03T19:33:43.920Z,27.67
2023-03-03T19:36:50.148Z,27.50
2023-03-03T19:39:49.224Z,34.33
2023-03-03T19:42:25.148Z,35.90
2023-03-03T19:45:19.612Z,36.10
2023-03-03T19:47:52.001Z,36.30
2023-03-03T19:50:32.915Z,39.27
2023-03-03T19:53:11.635Z,38.33
2023-03-03T19:55:50.076Z,37.20
2023-03-03T19:58:26.277Z,41.87
2023-03-03T20:00:58.444Z,41.83
2023-03-03T20:03:56.680Z,41.50
2023-03-03T20:06:44.916Z,43.20
2023-03-03T20:09:25.896Z,45.77
2023-03-03T20:12:09.866Z,45.03
2023-03-03T20:14:49.034Z,45.37
2023-03-03T20:17:35.263Z,43.07
2023-03-03T20:20:07.975Z,43.80
2023-03-03T20:22:48.966Z,44.57
2023-03-03T20:25:26.625Z,44.13
2023-03-03T20:28:04.296Z,44.40
2023-03-03T20:30:51.329Z,47.10
2023-03-03T20:33:36.331Z,45.00
2023-03-03T20:36:13.319Z,44.43
2023-03-03T20:38:52.968Z,45.63
2023-03-03T20:41:35.002Z,46.03
2023-03-03T20:44:15.533Z,47.17
2023-03-03T20:46:54.198Z,44.93
2023-03-03T20:49:40.335Z,44.77
2023-03-03T20:52:14.544Z,45.00
2023-03-03T20:54:49.563Z,43.93
2023-03-03T20:57:23.889Z,45.83
2023-03-03T21:00:00.483Z,45.13
2023-03-03T21:02:34.677Z,45.97
2023-03-03T21:05:14.738Z,48.00
2023-03-03T21:07:54.219Z,48.27
2023-03-03T21:10:25.029Z,47.10
2023-03-03T21:12:53.913Z,46.10
2023-03-03T21:15:30.397Z,48.33
2023-03-03T21:17:59.828Z,46.00
2023-03-03T21:20:30.872Z,47.70
2023-03-03T21:23:00.006Z,45.23
2023-03-03T21:25:46.627Z,45.63
2023-03-03T21:28:19.486Z,45.27
2023-03-03T21:31:11.564Z,46.53
2023-03-03T21:33:54.214Z,45.27
2023-03-03T21:36:24.350Z,45.60
2023-03-03T21:38:53.643Z,44.20
2023-03-03T21:41:22.961Z,43.97
2023-03-03T21:43:53.345Z,43.17
2023-03-03T21:46:21.968Z,44.27
2023-03-03T21:48:49.834Z,43.60
2023-03-03T21:51:20.335Z,43.13
2023-03-03T21:53:48.269Z,43.30
2023-03-03T21:56:16.224Z,45.27
2023-03-03T21:58:45.316Z,46.00
2023-03-03T22:01:13.624Z,47.23
2023-03-03T22:03:41.435Z,49.13
2023-03-03T22:06:09.310Z,58.80
2023-03-03T22:08:37.011Z,47.30
2023-03-03T22:11:05.608Z,47.40
2023-03-03T22:13:33.490Z,45.23
2023-03-03T22:16:02.646Z,46.77
2023-03-03T22:18:30.430Z,45.87
2023-03-03T22:20:58.149Z,46.03
2023-03-03T22:23:25.978Z,45.40
2023-03-03T22:25:53.709Z,45.53
2023-03-03T22:28:21.528Z,44.97
2023-03-03T22:30:49.288Z,44.00
2023-03-03T22:33:18.464Z,42.90
2023-03-03T22:35:46.338Z,43.03
2023-03-03T22:38:14.184Z,39.63
2023-03-03T22:40:41.925Z,41.13
2023-03-03T22:43:11.143Z,40.40
2023-03-03T22:45:38.913Z,39.37
2023-03-03T22:48:07.172Z,40.43
2023-03-03T22:50:39.405Z,42.03
2023-03-03T22:53:07.219Z,39.30
2023-03-03T22:55:37.057Z,41.10
2023-03-03T22:58:06.565Z,38.87
2023-03-03T23:00:38.068Z,37.83
2023-03-03T23:03:06.109Z,37.63
2023-03-03T23:05:34.062Z,37.33
2023-03-03T23:08:03.242Z,37.77
2023-03-03T23:10:30.967Z,36.73
2023-03-03T23:12:58.747Z,36.70
2023-03-03T23:15:26.598Z,38.23
2023-03-03T23:17:54.310Z,37.23
2023-03-03T23:20:24.194Z,38.27
2023-03-03T23:22:52.544Z,35.80
2023-03-03T23:25:22.991Z,37.17
2023-03-03T23:27:51.634Z,36.63
2023-03-03T23:30:27.633Z,37.23
2023-03-03T23:32:55.715Z,37.17
2023-03-03T23:35:23.500Z,36.43
2023-03-03T23:37:51.309Z,39.00
2023-03-03T23:40:19.386Z,35.57
2023-03-03T23:42:48.575Z,36.77
2023-03-03T23:45:16.910Z,36.67
2023-03-03T23:47:44.737Z,36.40
2023-03-03T23:50:14.360Z,37.97
2023-03-03T23:52:42.298Z,36.23
2023-03-03T23:55:10.840Z,36.30
2023-03-03T23:57:38.592Z,36.03
